sensor_id;sensor_type;location;lat;lon;timestamp;P1;durP1;ratioP1;P2;durP2;ratioP2
75016;SDS011;63577;39.766;2.720;2023-08-17T00:00:44;4.90;;;1.50;;
75016;SDS011;63577;39.766;2.720;2023-08-17T00:03:09;3.80;;;1.40;;
75016;SDS011;63577;39.766;2.720;2023-08-17T00:05:35;5.30;;;1.60;;
75016;SDS011;63577;39.766;2.720;2023-08-17T00:08:00;4.90;;;1.50;;
75016;SDS011;63577;39.766;2.720;2023-08-17T00:10:27;4.10;;;1.40;;
75016;SDS011;63577;39.766;2.720;2023-08-17T00:12:53;6.30;;;1.40;;
75016;SDS011;63577;39.766;2.720;2023-08-17T00:15:18;4.00;;;1.50;;
75016;SDS011;63577;39.766;2.720;2023-08-17T00:17:44;3.60;;;1.30;;
75016;SDS011;63577;39.766;2.720;2023-08-17T00:20:09;4.80;;;1.80;;
75016;SDS011;63577;39.766;2.720;2023-08-17T00:22:35;4.70;;;1.60;;
75016;SDS011;63577;39.766;2.720;2023-08-17T00:25:00;4.70;;;1.50;;
75016;SDS011;63577;39.766;2.720;2023-08-17T00:27:26;3.70;;;1.70;;
75016;SDS011;63577;39.766;2.720;2023-08-17T00:29:51;4.30;;;1.50;;
75016;SDS011;63577;39.766;2.720;2023-08-17T00:32:16;4.20;;;1.60;;
75016;SDS011;63577;39.766;2.720;2023-08-17T00:34:42;5.50;;;1.50;;
75016;SDS011;63577;39.766;2.720;2023-08-17T00:37:07;4.30;;;1.30;;
75016;SDS011;63577;39.766;2.720;2023-08-17T00:39:33;4.70;;;1.70;;
75016;SDS011;63577;39.766;2.720;2023-08-17T00:41:58;6.20;;;1.50;;
75016;SDS011;63577;39.766;2.720;2023-08-17T00:44:24;4.30;;;1.40;;
75016;SDS011;63577;39.766;2.720;2023-08-17T00:46:49;5.00;;;1.70;;
75016;SDS011;63577;39.766;2.720;2023-08-17T00:49:14;4.10;;;1.50;;
75016;SDS011;63577;39.766;2.720;2023-08-17T00:51:40;3.50;;;1.40;;
75016;SDS011;63577;39.766;2.720;2023-08-17T00:54:06;3.80;;;1.30;;
75016;SDS011;63577;39.766;2.720;2023-08-17T00:56:31;4.40;;;1.20;;
75016;SDS011;63577;39.766;2.720;2023-08-17T00:58:57;4.40;;;1.40;;
75016;SDS011;63577;39.766;2.720;2023-08-17T01:01:22;3.90;;;1.20;;
75016;SDS011;63577;39.766;2.720;2023-08-17T01:03:48;3.90;;;1.60;;
75016;SDS011;63577;39.766;2.720;2023-08-17T01:06:13;3.70;;;1.20;;
75016;SDS011;63577;39.766;2.720;2023-08-17T01:08:39;4.20;;;1.40;;
75016;SDS011;63577;39.766;2.720;2023-08-17T01:11:16;3.70;;;1.30;;
75016;SDS011;63577;39.766;2.720;2023-08-17T01:16:21;3.50;;;1.30;;
75016;SDS011;63577;39.766;2.720;2023-08-17T01:18:48;5.10;;;1.70;;
75016;SDS011;63577;39.766;2.720;2023-08-17T01:21:16;3.80;;;1.50;;
75016;SDS011;63577;39.766;2.720;2023-08-17T01:23:44;6.30;;;1.40;;
75016;SDS011;63577;39.766;2.720;2023-08-17T01:26:10;3.80;;;1.60;;
75016;SDS011;63577;39.766;2.720;2023-08-17T01:28:35;4.30;;;1.50;;
75016;SDS011;63577;39.766;2.720;2023-08-17T01:31:03;4.50;;;1.80;;
75016;SDS011;63577;39.766;2.720;2023-08-17T01:33:40;4.70;;;1.70;;
75016;SDS011;63577;39.766;2.720;2023-08-17T01:36:11;3.80;;;1.50;;
75016;SDS011;63577;39.766;2.720;2023-08-17T01:38:38;4.80;;;1.70;;
75016;SDS011;63577;39.766;2.720;2023-08-17T01:41:05;4.60;;;1.40;;
75016;SDS011;63577;39.766;2.720;2023-08-17T01:43:31;3.80;;;1.50;;
75016;SDS011;63577;39.766;2.720;2023-08-17T01:45:57;4.40;;;1.60;;
75016;SDS011;63577;39.766;2.720;2023-08-17T01:48:22;4.20;;;1.30;;
75016;SDS011;63577;39.766;2.720;2023-08-17T01:50:47;3.50;;;1.40;;
75016;SDS011;63577;39.766;2.720;2023-08-17T01:53:13;4.70;;;1.40;;
75016;SDS011;63577;39.766;2.720;2023-08-17T01:55:39;3.90;;;1.70;;
75016;SDS011;63577;39.766;2.720;2023-08-17T01:58:04;4.50;;;1.90;;
75016;SDS011;63577;39.766;2.720;2023-08-17T02:00:29;4.30;;;1.80;;
75016;SDS011;63577;39.766;2.720;2023-08-17T02:02:55;4.70;;;2.10;;
75016;SDS011;63577;39.766;2.720;2023-08-17T02:05:20;6.20;;;2.40;;
75016;SDS011;63577;39.766;2.720;2023-08-17T02:07:45;4.60;;;1.50;;
75016;SDS011;63577;39.766;2.720;2023-08-17T02:10:11;5.40;;;1.70;;
75016;SDS011;63577;39.766;2.720;2023-08-17T02:12:36;6.00;;;1.70;;
75016;SDS011;63577;39.766;2.720;2023-08-17T02:15:02;5.00;;;1.80;;
75016;SDS011;63577;39.766;2.720;2023-08-17T02:17:27;6.10;;;2.30;;
75016;SDS011;63577;39.766;2.720;2023-08-17T02:19:52;5.40;;;2.00;;
75016;SDS011;63577;39.766;2.720;2023-08-17T02:22:18;6.00;;;2.20;;
75016;SDS011;63577;39.766;2.720;2023-08-17T02:24:43;4.60;;;1.60;;
75016;SDS011;63577;39.766;2.720;2023-08-17T02:27:09;5.80;;;2.20;;
75016;SDS011;63577;39.766;2.720;2023-08-17T02:29:34;5.40;;;1.90;;
75016;SDS011;63577;39.766;2.720;2023-08-17T02:32:00;5.30;;;2.10;;
75016;SDS011;63577;39.766;2.720;2023-08-17T02:34:25;6.50;;;2.10;;
75016;SDS011;63577;39.766;2.720;2023-08-17T02:36:50;7.50;;;2.50;;
75016;SDS011;63577;39.766;2.720;2023-08-17T02:39:15;5.00;;;1.90;;
75016;SDS011;63577;39.766;2.720;2023-08-17T02:41:41;5.80;;;2.30;;
75016;SDS011;63577;39.766;2.720;2023-08-17T02:44:06;6.60;;;2.40;;
75016;SDS011;63577;39.766;2.720;2023-08-17T02:46:31;4.80;;;1.90;;
75016;SDS011;63577;39.766;2.720;2023-08-17T02:48:57;5.50;;;2.10;;
75016;SDS011;63577;39.766;2.720;2023-08-17T02:51:22;5.30;;;2.50;;
75016;SDS011;63577;39.766;2.720;2023-08-17T02:53:47;4.10;;;2.00;;
75016;SDS011;63577;39.766;2.720;2023-08-17T02:56:13;5.80;;;2.30;;
75016;SDS011;63577;39.766;2.720;2023-08-17T02:58:39;6.60;;;2.00;;
75016;SDS011;63577;39.766;2.720;2023-08-17T03:01:07;4.20;;;1.90;;
75016;SDS011;63577;39.766;2.720;2023-08-17T03:03:33;4.90;;;2.20;;
75016;SDS011;63577;39.766;2.720;2023-08-17T03:05:58;6.00;;;2.00;;
75016;SDS011;63577;39.766;2.720;2023-08-17T03:08:24;5.00;;;2.10;;
75016;SDS011;63577;39.766;2.720;2023-08-17T03:10:49;6.60;;;2.40;;
75016;SDS011;63577;39.766;2.720;2023-08-17T03:13:14;5.60;;;2.10;;
75016;SDS011;63577;39.766;2.720;2023-08-17T03:15:39;4.60;;;2.20;;
75016;SDS011;63577;39.766;2.720;2023-08-17T03:18:05;4.50;;;2.30;;
75016;SDS011;63577;39.766;2.720;2023-08-17T03:20:31;7.10;;;2.20;;
75016;SDS011;63577;39.766;2.720;2023-08-17T03:22:56;6.00;;;2.10;;
75016;SDS011;63577;39.766;2.720;2023-08-17T03:25:21;6.20;;;2.30;;
75016;SDS011;63577;39.766;2.720;2023-08-17T03:27:47;5.70;;;1.90;;
75016;SDS011;63577;39.766;2.720;2023-08-17T03:30:12;4.70;;;1.90;;
75016;SDS011;63577;39.766;2.720;2023-08-17T03:32:37;6.50;;;2.10;;
75016;SDS011;63577;39.766;2.720;2023-08-17T03:35:03;6.90;;;2.60;;
75016;SDS011;63577;39.766;2.720;2023-08-17T03:37:28;7.00;;;2.10;;
75016;SDS011;63577;39.766;2.720;2023-08-17T03:39:54;6.20;;;2.30;;
75016;SDS011;63577;39.766;2.720;2023-08-17T03:42:19;4.40;;;2.30;;
75016;SDS011;63577;39.766;2.720;2023-08-17T03:44:45;7.40;;;2.20;;
75016;SDS011;63577;39.766;2.720;2023-08-17T03:47:10;6.60;;;2.40;;
75016;SDS011;63577;39.766;2.720;2023-08-17T03:49:36;5.10;;;2.00;;
75016;SDS011;63577;39.766;2.720;2023-08-17T03:52:02;5.80;;;2.70;;
75016;SDS011;63577;39.766;2.720;2023-08-17T03:54:27;5.40;;;2.10;;
75016;SDS011;63577;39.766;2.720;2023-08-17T03:56:52;5.50;;;2.50;;
75016;SDS011;63577;39.766;2.720;2023-08-17T03:59:18;6.10;;;2.40;;
75016;SDS011;63577;39.766;2.720;2023-08-17T04:01:43;5.80;;;2.00;;
75016;SDS011;63577;39.766;2.720;2023-08-17T04:04:09;7.50;;;2.50;;
75016;SDS011;63577;39.766;2.720;2023-08-17T04:06:34;5.30;;;2.40;;
75016;SDS011;63577;39.766;2.720;2023-08-17T04:09:00;6.90;;;2.60;;
75016;SDS011;63577;39.766;2.720;2023-08-17T04:11:26;6.50;;;2.50;;
75016;SDS011;63577;39.766;2.720;2023-08-17T04:13:51;5.90;;;2.20;;
75016;SDS011;63577;39.766;2.720;2023-08-17T04:16:17;5.90;;;2.20;;
75016;SDS011;63577;39.766;2.720;2023-08-17T04:18:42;5.80;;;2.50;;
75016;SDS011;63577;39.766;2.720;2023-08-17T04:21:07;5.50;;;2.40;;
75016;SDS011;63577;39.766;2.720;2023-08-17T04:23:33;4.90;;;2.60;;
75016;SDS011;63577;39.766;2.720;2023-08-17T04:25:58;6.40;;;2.30;;
75016;SDS011;63577;39.766;2.720;2023-08-17T04:28:23;7.00;;;2.70;;
75016;SDS011;63577;39.766;2.720;2023-08-17T04:30:49;5.10;;;2.20;;
75016;SDS011;63577;39.766;2.720;2023-08-17T04:33:14;5.50;;;2.50;;
75016;SDS011;63577;39.766;2.720;2023-08-17T04:35:39;6.00;;;2.50;;
75016;SDS011;63577;39.766;2.720;2023-08-17T04:38:05;8.00;;;2.50;;
75016;SDS011;63577;39.766;2.720;2023-08-17T04:40:30;8.40;;;2.20;;
75016;SDS011;63577;39.766;2.720;2023-08-17T04:42:55;4.90;;;2.70;;
75016;SDS011;63577;39.766;2.720;2023-08-17T04:45:21;6.90;;;2.40;;
75016;SDS011;63577;39.766;2.720;2023-08-17T04:47:46;6.00;;;2.70;;
75016;SDS011;63577;39.766;2.720;2023-08-17T04:50:12;8.20;;;2.50;;
75016;SDS011;63577;39.766;2.720;2023-08-17T04:52:41;5.80;;;3.00;;
75016;SDS011;63577;39.766;2.720;2023-08-17T04:55:07;5.50;;;2.50;;
75016;SDS011;63577;39.766;2.720;2023-08-17T04:57:32;6.30;;;2.60;;
75016;SDS011;63577;39.766;2.720;2023-08-17T04:59:57;6.20;;;2.60;;
75016;SDS011;63577;39.766;2.720;2023-08-17T05:02:23;6.00;;;2.60;;
75016;SDS011;63577;39.766;2.720;2023-08-17T05:04:48;9.20;;;2.90;;
75016;SDS011;63577;39.766;2.720;2023-08-17T05:07:14;5.80;;;2.60;;
75016;SDS011;63577;39.766;2.720;2023-08-17T05:09:39;7.50;;;2.60;;
75016;SDS011;63577;39.766;2.720;2023-08-17T05:12:04;6.20;;;2.50;;
75016;SDS011;63577;39.766;2.720;2023-08-17T05:14:30;6.70;;;3.10;;
75016;SDS011;63577;39.766;2.720;2023-08-17T05:16:55;9.20;;;3.00;;
75016;SDS011;63577;39.766;2.720;2023-08-17T05:19:21;6.20;;;2.70;;
75016;SDS011;63577;39.766;2.720;2023-08-17T05:21:46;7.10;;;2.50;;
75016;SDS011;63577;39.766;2.720;2023-08-17T05:24:14;7.10;;;2.60;;
75016;SDS011;63577;39.766;2.720;2023-08-17T05:26:39;8.70;;;2.70;;
75016;SDS011;63577;39.766;2.720;2023-08-17T05:29:04;6.40;;;3.00;;
75016;SDS011;63577;39.766;2.720;2023-08-17T05:31:30;10.00;;;3.10;;
75016;SDS011;63577;39.766;2.720;2023-08-17T05:33:55;6.40;;;2.80;;
75016;SDS011;63577;39.766;2.720;2023-08-17T05:36:21;7.20;;;2.80;;
75016;SDS011;63577;39.766;2.720;2023-08-17T05:38:46;6.10;;;2.60;;
75016;SDS011;63577;39.766;2.720;2023-08-17T05:41:11;6.70;;;2.60;;
75016;SDS011;63577;39.766;2.720;2023-08-17T05:43:37;7.90;;;3.10;;
75016;SDS011;63577;39.766;2.720;2023-08-17T05:46:02;6.40;;;2.80;;
75016;SDS011;63577;39.766;2.720;2023-08-17T05:48:28;8.60;;;3.50;;
75016;SDS011;63577;39.766;2.720;2023-08-17T05:50:54;8.70;;;3.10;;
75016;SDS011;63577;39.766;2.720;2023-08-17T05:53:20;8.40;;;3.30;;
75016;SDS011;63577;39.766;2.720;2023-08-17T05:55:45;9.60;;;3.70;;
75016;SDS011;63577;39.766;2.720;2023-08-17T05:58:11;9.60;;;3.80;;
75016;SDS011;63577;39.766;2.720;2023-08-17T06:00:36;7.30;;;3.20;;
75016;SDS011;63577;39.766;2.720;2023-08-17T06:03:02;7.90;;;2.90;;
75016;SDS011;63577;39.766;2.720;2023-08-17T06:05:28;7.00;;;3.30;;
75016;SDS011;63577;39.766;2.720;2023-08-17T06:07:57;7.30;;;3.80;;
75016;SDS011;63577;39.766;2.720;2023-08-17T06:10:25;7.30;;;3.10;;
75016;SDS011;63577;39.766;2.720;2023-08-17T06:12:54;8.90;;;3.20;;
75016;SDS011;63577;39.766;2.720;2023-08-17T06:15:20;8.10;;;3.00;;
75016;SDS011;63577;39.766;2.720;2023-08-17T06:17:45;9.00;;;3.20;;
75016;SDS011;63577;39.766;2.720;2023-08-17T06:20:11;9.00;;;3.90;;
75016;SDS011;63577;39.766;2.720;2023-08-17T06:22:37;7.70;;;3.30;;
75016;SDS011;63577;39.766;2.720;2023-08-17T06:25:03;7.90;;;3.70;;
75016;SDS011;63577;39.766;2.720;2023-08-17T06:27:30;7.30;;;3.20;;
75016;SDS011;63577;39.766;2.720;2023-08-17T06:29:55;7.80;;;3.30;;
75016;SDS011;63577;39.766;2.720;2023-08-17T06:32:21;7.60;;;3.10;;
75016;SDS011;63577;39.766;2.720;2023-08-17T06:34:46;7.90;;;3.40;;
75016;SDS011;63577;39.766;2.720;2023-08-17T06:37:11;9.50;;;3.50;;
75016;SDS011;63577;39.766;2.720;2023-08-17T06:39:37;8.00;;;3.40;;
75016;SDS011;63577;39.766;2.720;2023-08-17T06:42:02;7.80;;;3.30;;
75016;SDS011;63577;39.766;2.720;2023-08-17T06:44:28;9.20;;;3.60;;
75016;SDS011;63577;39.766;2.720;2023-08-17T06:46:56;7.40;;;3.40;;
75016;SDS011;63577;39.766;2.720;2023-08-17T06:49:21;8.30;;;3.40;;
75016;SDS011;63577;39.766;2.720;2023-08-17T06:51:47;7.90;;;3.80;;
75016;SDS011;63577;39.766;2.720;2023-08-17T06:54:12;9.00;;;3.20;;
75016;SDS011;63577;39.766;2.720;2023-08-17T06:56:37;7.30;;;2.50;;
75016;SDS011;63577;39.766;2.720;2023-08-17T06:59:03;4.90;;;2.50;;
75016;SDS011;63577;39.766;2.720;2023-08-17T07:01:28;8.40;;;3.60;;
75016;SDS011;63577;39.766;2.720;2023-08-17T07:03:53;6.00;;;3.00;;
75016;SDS011;63577;39.766;2.720;2023-08-17T07:06:19;7.90;;;3.50;;
75016;SDS011;63577;39.766;2.720;2023-08-17T07:08:44;6.30;;;3.50;;
75016;SDS011;63577;39.766;2.720;2023-08-17T07:11:11;7.20;;;3.30;;
75016;SDS011;63577;39.766;2.720;2023-08-17T07:13:36;7.40;;;3.80;;
75016;SDS011;63577;39.766;2.720;2023-08-17T07:16:01;10.50;;;4.20;;
75016;SDS011;63577;39.766;2.720;2023-08-17T07:18:27;9.30;;;3.90;;
75016;SDS011;63577;39.766;2.720;2023-08-17T07:20:52;9.00;;;4.30;;
75016;SDS011;63577;39.766;2.720;2023-08-17T07:23:17;10.10;;;4.20;;
75016;SDS011;63577;39.766;2.720;2023-08-17T07:25:43;10.50;;;4.40;;
75016;SDS011;63577;39.766;2.720;2023-08-17T07:28:09;10.70;;;4.50;;
75016;SDS011;63577;39.766;2.720;2023-08-17T07:30:34;9.90;;;4.40;;
75016;SDS011;63577;39.766;2.720;2023-08-17T07:33:00;11.30;;;4.80;;
75016;SDS011;63577;39.766;2.720;2023-08-17T07:35:25;10.20;;;5.00;;
75016;SDS011;63577;39.766;2.720;2023-08-17T07:37:50;10.20;;;4.70;;
75016;SDS011;63577;39.766;2.720;2023-08-17T07:40:16;11.00;;;4.80;;
75016;SDS011;63577;39.766;2.720;2023-08-17T07:42:41;9.50;;;5.20;;
75016;SDS011;63577;39.766;2.720;2023-08-17T07:45:07;14.30;;;4.90;;
75016;SDS011;63577;39.766;2.720;2023-08-17T07:47:35;11.20;;;4.90;;
75016;SDS011;63577;39.766;2.720;2023-08-17T07:50:02;7.70;;;3.90;;
75016;SDS011;63577;39.766;2.720;2023-08-17T07:52:27;9.90;;;3.70;;
75016;SDS011;63577;39.766;2.720;2023-08-17T07:54:53;8.70;;;3.70;;
75016;SDS011;63577;39.766;2.720;2023-08-17T07:57:19;11.90;;;4.30;;
75016;SDS011;63577;39.766;2.720;2023-08-17T07:59:44;9.00;;;4.10;;
75016;SDS011;63577;39.766;2.720;2023-08-17T08:02:09;10.00;;;4.50;;
75016;SDS011;63577;39.766;2.720;2023-08-17T08:04:35;8.60;;;4.40;;
75016;SDS011;63577;39.766;2.720;2023-08-17T08:07:00;11.10;;;5.20;;
75016;SDS011;63577;39.766;2.720;2023-08-17T08:09:26;13.70;;;5.30;;
75016;SDS011;63577;39.766;2.720;2023-08-17T08:11:51;10.30;;;4.90;;
75016;SDS011;63577;39.766;2.720;2023-08-17T08:14:16;10.80;;;4.90;;
75016;SDS011;63577;39.766;2.720;2023-08-17T08:16:42;10.80;;;5.00;;
75016;SDS011;63577;39.766;2.720;2023-08-17T08:19:07;12.00;;;4.20;;
75016;SDS011;63577;39.766;2.720;2023-08-17T08:21:33;9.90;;;4.00;;
75016;SDS011;63577;39.766;2.720;2023-08-17T08:23:58;10.50;;;4.30;;
75016;SDS011;63577;39.766;2.720;2023-08-17T08:26:23;8.60;;;4.00;;
75016;SDS011;63577;39.766;2.720;2023-08-17T08:28:48;9.80;;;4.30;;
75016;SDS011;63577;39.766;2.720;2023-08-17T08:31:14;10.80;;;4.70;;
75016;SDS011;63577;39.766;2.720;2023-08-17T08:33:39;8.50;;;4.60;;
75016;SDS011;63577;39.766;2.720;2023-08-17T08:36:05;11.40;;;4.90;;
75016;SDS011;63577;39.766;2.720;2023-08-17T08:38:31;10.40;;;4.40;;
75016;SDS011;63577;39.766;2.720;2023-08-17T08:40:57;9.60;;;4.50;;
75016;SDS011;63577;39.766;2.720;2023-08-17T08:43:23;10.30;;;5.50;;
75016;SDS011;63577;39.766;2.720;2023-08-17T08:45:49;11.30;;;5.00;;
75016;SDS011;63577;39.766;2.720;2023-08-17T08:48:16;11.90;;;5.10;;
75016;SDS011;63577;39.766;2.720;2023-08-17T08:50:43;10.20;;;4.40;;
75016;SDS011;63577;39.766;2.720;2023-08-17T08:53:11;10.10;;;4.60;;
75016;SDS011;63577;39.766;2.720;2023-08-17T08:55:38;11.70;;;5.00;;
75016;SDS011;63577;39.766;2.720;2023-08-17T08:58:07;9.50;;;4.80;;
75016;SDS011;63577;39.766;2.720;2023-08-17T09:00:33;11.90;;;5.30;;
75016;SDS011;63577;39.766;2.720;2023-08-17T09:02:59;10.70;;;5.10;;
75016;SDS011;63577;39.766;2.720;2023-08-17T09:05:26;11.70;;;4.50;;
75016;SDS011;63577;39.766;2.720;2023-08-17T09:07:52;9.60;;;4.70;;
75016;SDS011;63577;39.766;2.720;2023-08-17T09:10:17;8.90;;;4.30;;
75016;SDS011;63577;39.766;2.720;2023-08-17T09:12:45;10.00;;;4.80;;
75016;SDS011;63577;39.766;2.720;2023-08-17T09:15:10;11.00;;;4.80;;
75016;SDS011;63577;39.766;2.720;2023-08-17T09:17:36;11.10;;;5.40;;
75016;SDS011;63577;39.766;2.720;2023-08-17T09:20:01;10.40;;;4.50;;
75016;SDS011;63577;39.766;2.720;2023-08-17T09:22:41;10.20;;;5.30;;
75016;SDS011;63577;39.766;2.720;2023-08-17T09:25:07;10.90;;;5.30;;
75016;SDS011;63577;39.766;2.720;2023-08-17T09:27:33;10.10;;;4.80;;
75016;SDS011;63577;39.766;2.720;2023-08-17T09:30:02;9.10;;;4.70;;
75016;SDS011;63577;39.766;2.720;2023-08-17T09:32:32;10.50;;;4.60;;
75016;SDS011;63577;39.766;2.720;2023-08-17T09:35:00;11.10;;;5.20;;
75016;SDS011;63577;39.766;2.720;2023-08-17T09:37:26;11.30;;;5.00;;
75016;SDS011;63577;39.766;2.720;2023-08-17T09:39:52;10.20;;;5.00;;
75016;SDS011;63577;39.766;2.720;2023-08-17T09:42:17;11.90;;;4.90;;
75016;SDS011;63577;39.766;2.720;2023-08-17T09:44:43;11.50;;;5.10;;
75016;SDS011;63577;39.766;2.720;2023-08-17T09:47:08;11.40;;;5.70;;
75016;SDS011;63577;39.766;2.720;2023-08-17T09:49:35;13.00;;;5.20;;
75016;SDS011;63577;39.766;2.720;2023-08-17T09:52:00;11.40;;;4.90;;
75016;SDS011;63577;39.766;2.720;2023-08-17T09:54:27;13.10;;;5.90;;
75016;SDS011;63577;39.766;2.720;2023-08-17T09:56:55;13.30;;;5.60;;
75016;SDS011;63577;39.766;2.720;2023-08-17T09:59:21;13.90;;;5.70;;
75016;SDS011;63577;39.766;2.720;2023-08-17T10:01:47;10.90;;;5.00;;
75016;SDS011;63577;39.766;2.720;2023-08-17T10:04:13;12.30;;;4.90;;
75016;SDS011;63577;39.766;2.720;2023-08-17T10:06:40;10.40;;;5.20;;
75016;SDS011;63577;39.766;2.720;2023-08-17T10:09:07;11.00;;;5.00;;
75016;SDS011;63577;39.766;2.720;2023-08-17T10:11:34;10.30;;;5.20;;
75016;SDS011;63577;39.766;2.720;2023-08-17T10:14:05;12.90;;;5.10;;
75016;SDS011;63577;39.766;2.720;2023-08-17T10:16:45;12.40;;;5.70;;
75016;SDS011;63577;39.766;2.720;2023-08-17T10:21:37;14.70;;;5.30;;
75016;SDS011;63577;39.766;2.720;2023-08-17T10:24:04;12.00;;;5.50;;
75016;SDS011;63577;39.766;2.720;2023-08-17T10:26:30;14.60;;;5.20;;
75016;SDS011;63577;39.766;2.720;2023-08-17T10:28:56;14.70;;;5.00;;
75016;SDS011;63577;39.766;2.720;2023-08-17T10:31:24;14.30;;;5.50;;
75016;SDS011;63577;39.766;2.720;2023-08-17T10:33:49;13.20;;;4.90;;
75016;SDS011;63577;39.766;2.720;2023-08-17T10:36:15;13.00;;;4.80;;
75016;SDS011;63577;39.766;2.720;2023-08-17T10:38:40;13.90;;;5.20;;
75016;SDS011;63577;39.766;2.720;2023-08-17T10:43:35;12.70;;;5.30;;
75016;SDS011;63577;39.766;2.720;2023-08-17T10:46:16;12.70;;;5.50;;
75016;SDS011;63577;39.766;2.720;2023-08-17T10:48:44;10.50;;;5.20;;
75016;SDS011;63577;39.766;2.720;2023-08-17T10:51:09;14.70;;;5.10;;
75016;SDS011;63577;39.766;2.720;2023-08-17T10:53:38;13.20;;;5.80;;
75016;SDS011;63577;39.766;2.720;2023-08-17T10:56:07;14.40;;;4.90;;
75016;SDS011;63577;39.766;2.720;2023-08-17T10:58:35;11.70;;;5.20;;
75016;SDS011;63577;39.766;2.720;2023-08-17T11:01:01;11.60;;;5.30;;
75016;SDS011;63577;39.766;2.720;2023-08-17T11:03:26;11.70;;;4.70;;
75016;SDS011;63577;39.766;2.720;2023-08-17T11:05:54;12.20;;;5.70;;
75016;SDS011;63577;39.766;2.720;2023-08-17T11:08:32;11.80;;;5.20;;
75016;SDS011;63577;39.766;2.720;2023-08-17T11:11:01;11.80;;;5.30;;
75016;SDS011;63577;39.766;2.720;2023-08-17T11:13:27;12.10;;;6.10;;
75016;SDS011;63577;39.766;2.720;2023-08-17T11:15:53;11.80;;;5.30;;
75016;SDS011;63577;39.766;2.720;2023-08-17T11:18:18;10.90;;;4.60;;
75016;SDS011;63577;39.766;2.720;2023-08-17T11:20:43;11.40;;;5.30;;
75016;SDS011;63577;39.766;2.720;2023-08-17T11:23:09;13.10;;;5.50;;
75016;SDS011;63577;39.766;2.720;2023-08-17T11:25:35;11.40;;;5.80;;
75016;SDS011;63577;39.766;2.720;2023-08-17T11:28:01;11.90;;;5.80;;
75016;SDS011;63577;39.766;2.720;2023-08-17T11:30:27;11.10;;;5.40;;
75016;SDS011;63577;39.766;2.720;2023-08-17T11:32:53;14.20;;;5.50;;
75016;SDS011;63577;39.766;2.720;2023-08-17T11:35:19;15.00;;;5.70;;
75016;SDS011;63577;39.766;2.720;2023-08-17T11:37:44;12.30;;;5.00;;
75016;SDS011;63577;39.766;2.720;2023-08-17T11:40:13;11.20;;;4.60;;
75016;SDS011;63577;39.766;2.720;2023-08-17T11:42:38;10.60;;;4.70;;
75016;SDS011;63577;39.766;2.720;2023-08-17T11:45:04;11.70;;;4.60;;
75016;SDS011;63577;39.766;2.720;2023-08-17T11:47:30;15.00;;;5.40;;
75016;SDS011;63577;39.766;2.720;2023-08-17T11:50:01;13.60;;;4.20;;
75016;SDS011;63577;39.766;2.720;2023-08-17T11:52:26;11.50;;;5.30;;
75016;SDS011;63577;39.766;2.720;2023-08-17T11:54:54;13.10;;;4.70;;
75016;SDS011;63577;39.766;2.720;2023-08-17T11:57:20;13.60;;;5.70;;
75016;SDS011;63577;39.766;2.720;2023-08-17T11:59:45;14.00;;;5.80;;
75016;SDS011;63577;39.766;2.720;2023-08-17T12:02:10;12.60;;;4.80;;
75016;SDS011;63577;39.766;2.720;2023-08-17T12:04:37;12.10;;;5.30;;
75016;SDS011;63577;39.766;2.720;2023-08-17T12:07:02;13.00;;;5.70;;
75016;SDS011;63577;39.766;2.720;2023-08-17T12:09:27;13.90;;;5.30;;
75016;SDS011;63577;39.766;2.720;2023-08-17T12:11:59;9.90;;;4.30;;
75016;SDS011;63577;39.766;2.720;2023-08-17T12:14:26;15.80;;;5.30;;
75016;SDS011;63577;39.766;2.720;2023-08-17T12:16:51;9.30;;;4.70;;
75016;SDS011;63577;39.766;2.720;2023-08-17T12:19:18;12.40;;;4.80;;
75016;SDS011;63577;39.766;2.720;2023-08-17T12:21:45;12.90;;;4.90;;
75016;SDS011;63577;39.766;2.720;2023-08-17T12:24:10;15.30;;;5.30;;
75016;SDS011;63577;39.766;2.720;2023-08-17T12:26:46;11.70;;;4.90;;
75016;SDS011;63577;39.766;2.720;2023-08-17T12:29:11;13.30;;;5.60;;
75016;SDS011;63577;39.766;2.720;2023-08-17T12:31:37;12.40;;;4.90;;
75016;SDS011;63577;39.766;2.720;2023-08-17T12:34:02;15.20;;;5.00;;
75016;SDS011;63577;39.766;2.720;2023-08-17T12:36:29;10.30;;;4.70;;
75016;SDS011;63577;39.766;2.720;2023-08-17T12:38:55;12.60;;;5.70;;
75016;SDS011;63577;39.766;2.720;2023-08-17T12:41:20;10.40;;;4.40;;
75016;SDS011;63577;39.766;2.720;2023-08-17T12:43:46;15.00;;;5.60;;
75016;SDS011;63577;39.766;2.720;2023-08-17T12:46:11;12.30;;;4.80;;
75016;SDS011;63577;39.766;2.720;2023-08-17T12:48:37;11.00;;;5.10;;
75016;SDS011;63577;39.766;2.720;2023-08-17T12:51:03;12.50;;;5.70;;
75016;SDS011;63577;39.766;2.720;2023-08-17T12:53:28;12.50;;;4.90;;
75016;SDS011;63577;39.766;2.720;2023-08-17T12:55:53;11.70;;;5.20;;
75016;SDS011;63577;39.766;2.720;2023-08-17T12:58:19;11.30;;;4.80;;
75016;SDS011;63577;39.766;2.720;2023-08-17T13:00:44;11.90;;;5.10;;
75016;SDS011;63577;39.766;2.720;2023-08-17T13:03:09;10.80;;;4.70;;
75016;SDS011;63577;39.766;2.720;2023-08-17T13:05:35;11.90;;;5.50;;
75016;SDS011;63577;39.766;2.720;2023-08-17T13:08:00;14.70;;;5.50;;
75016;SDS011;63577;39.766;2.720;2023-08-17T13:10:25;11.40;;;5.90;;
75016;SDS011;63577;39.766;2.720;2023-08-17T13:12:51;14.70;;;5.80;;
75016;SDS011;63577;39.766;2.720;2023-08-17T13:15:20;12.00;;;5.50;;
75016;SDS011;63577;39.766;2.720;2023-08-17T13:17:46;14.00;;;5.20;;
75016;SDS011;63577;39.766;2.720;2023-08-17T13:20:11;12.40;;;5.10;;
75016;SDS011;63577;39.766;2.720;2023-08-17T13:22:37;11.80;;;5.40;;
75016;SDS011;63577;39.766;2.720;2023-08-17T13:25:02;10.60;;;4.70;;
75016;SDS011;63577;39.766;2.720;2023-08-17T13:27:28;12.60;;;4.60;;
75016;SDS011;63577;39.766;2.720;2023-08-17T13:29:53;12.20;;;5.20;;
75016;SDS011;63577;39.766;2.720;2023-08-17T13:32:18;10.10;;;5.10;;
75016;SDS011;63577;39.766;2.720;2023-08-17T13:34:44;14.10;;;5.00;;
75016;SDS011;63577;39.766;2.720;2023-08-17T13:37:09;10.60;;;4.40;;
75016;SDS011;63577;39.766;2.720;2023-08-17T13:39:34;11.60;;;5.10;;
75016;SDS011;63577;39.766;2.720;2023-08-17T13:42:00;13.70;;;4.90;;
75016;SDS011;63577;39.766;2.720;2023-08-17T13:44:25;12.10;;;5.20;;
75016;SDS011;63577;39.766;2.720;2023-08-17T13:46:50;10.90;;;5.00;;
75016;SDS011;63577;39.766;2.720;2023-08-17T13:49:16;10.50;;;4.80;;
75016;SDS011;63577;39.766;2.720;2023-08-17T13:51:41;10.10;;;4.60;;
75016;SDS011;63577;39.766;2.720;2023-08-17T13:54:06;11.80;;;5.70;;
75016;SDS011;63577;39.766;2.720;2023-08-17T13:56:32;9.60;;;4.40;;
75016;SDS011;63577;39.766;2.720;2023-08-17T13:58:57;16.30;;;4.90;;
75016;SDS011;63577;39.766;2.720;2023-08-17T14:01:22;11.70;;;5.30;;
75016;SDS011;63577;39.766;2.720;2023-08-17T14:03:48;15.20;;;5.90;;
75016;SDS011;63577;39.766;2.720;2023-08-17T14:06:13;10.90;;;5.10;;
75016;SDS011;63577;39.766;2.720;2023-08-17T14:08:39;13.00;;;5.40;;
75016;SDS011;63577;39.766;2.720;2023-08-17T14:11:04;10.80;;;5.60;;
75016;SDS011;63577;39.766;2.720;2023-08-17T14:13:31;9.40;;;4.80;;
75016;SDS011;63577;39.766;2.720;2023-08-17T14:15:57;11.90;;;4.50;;
75016;SDS011;63577;39.766;2.720;2023-08-17T14:18:23;9.90;;;4.70;;
75016;SDS011;63577;39.766;2.720;2023-08-17T14:20:48;13.00;;;4.80;;
75016;SDS011;63577;39.766;2.720;2023-08-17T14:23:14;10.90;;;5.40;;
75016;SDS011;63577;39.766;2.720;2023-08-17T14:25:39;13.20;;;5.40;;
75016;SDS011;63577;39.766;2.720;2023-08-17T14:28:04;11.60;;;5.00;;
75016;SDS011;63577;39.766;2.720;2023-08-17T14:30:30;12.00;;;5.30;;
75016;SDS011;63577;39.766;2.720;2023-08-17T14:32:55;11.70;;;5.30;;
75016;SDS011;63577;39.766;2.720;2023-08-17T14:35:21;10.70;;;5.30;;
75016;SDS011;63577;39.766;2.720;2023-08-17T14:37:46;16.10;;;5.30;;
75016;SDS011;63577;39.766;2.720;2023-08-17T14:40:12;12.20;;;4.80;;